sensor_id;sensor_type;location;lat;lon;timestamp;P1;durP1;ratioP1;P2;durP2;ratioP2
22429;SDS011;11382;48.086;11.632;2024-01-27T00:01:35;4.60;;;1.85;;
22429;SDS011;11382;48.086;11.632;2024-01-27T00:04:03;3.30;;;1.73;;
22429;SDS011;11382;48.086;11.632;2024-01-27T00:06:31;3.55;;;1.60;;
22429;SDS011;11382;48.086;11.632;2024-01-27T00:08:59;3.30;;;1.88;;
22429;SDS011;11382;48.086;11.632;2024-01-27T00:11:27;4.25;;;2.35;;
22429;SDS011;11382;48.086;11.632;2024-01-27T00:13:55;2.85;;;1.75;;
22429;SDS011;11382;48.086;11.632;2024-01-27T00:16:23;3.47;;;1.85;;
22429;SDS011;11382;48.086;11.632;2024-01-27T00:18:52;4.63;;;2.33;;
22429;SDS011;11382;48.086;11.632;2024-01-27T00:21:21;4.60;;;1.60;;
22429;SDS011;11382;48.086;11.632;2024-01-27T00:23:49;5.18;;;2.00;;
22429;SDS011;11382;48.086;11.632;2024-01-27T00:26:17;3.33;;;1.92;;
22429;SDS011;11382;48.086;11.632;2024-01-27T00:28:45;4.57;;;1.90;;
22429;SDS011;11382;48.086;11.632;2024-01-27T00:31:13;4.22;;;1.88;;
22429;SDS011;11382;48.086;11.632;2024-01-27T00:33:43;5.47;;;1.92;;
22429;SDS011;11382;48.086;11.632;2024-01-27T00:36:13;7.57;;;1.95;;
22429;SDS011;11382;48.086;11.632;2024-01-27T00:38:41;5.13;;;1.80;;
22429;SDS011;11382;48.086;11.632;2024-01-27T00:41:09;3.10;;;1.80;;
22429;SDS011;11382;48.086;11.632;2024-01-27T00:43:42;3.20;;;2.00;;
22429;SDS011;11382;48.086;11.632;2024-01-27T00:46:10;5.95;;;2.10;;
22429;SDS011;11382;48.086;11.632;2024-01-27T00:48:38;4.22;;;1.83;;
22429;SDS011;11382;48.086;11.632;2024-01-27T00:51:07;3.13;;;1.88;;
22429;SDS011;11382;48.086;11.632;2024-01-27T00:53:36;4.45;;;2.40;;
22429;SDS011;11382;48.086;11.632;2024-01-27T00:56:04;4.85;;;2.08;;
22429;SDS011;11382;48.086;11.632;2024-01-27T00:58:33;4.93;;;1.88;;
22429;SDS011;11382;48.086;11.632;2024-01-27T01:01:01;3.33;;;1.90;;
22429;SDS011;11382;48.086;11.632;2024-01-27T01:03:29;6.32;;;2.33;;
22429;SDS011;11382;48.086;11.632;2024-01-27T01:05:57;4.95;;;1.98;;
22429;SDS011;11382;48.086;11.632;2024-01-27T01:08:26;3.97;;;1.70;;
22429;SDS011;11382;48.086;11.632;2024-01-27T01:10:55;4.57;;;1.95;;
22429;SDS011;11382;48.086;11.632;2024-01-27T01:13:23;5.07;;;2.00;;
22429;SDS011;11382;48.086;11.632;2024-01-27T01:15:52;3.88;;;2.17;;
22429;SDS011;11382;48.086;11.632;2024-01-27T01:18:20;3.58;;;1.92;;
22429;SDS011;11382;48.086;11.632;2024-01-27T01:20:48;5.00;;;1.88;;
22429;SDS011;11382;48.086;11.632;2024-01-27T01:23:16;3.42;;;1.85;;
22429;SDS011;11382;48.086;11.632;2024-01-27T01:25:44;7.07;;;2.67;;
22429;SDS011;11382;48.086;11.632;2024-01-27T01:28:12;4.65;;;1.90;;
22429;SDS011;11382;48.086;11.632;2024-01-27T01:30:41;5.68;;;2.00;;
22429;SDS011;11382;48.086;11.632;2024-01-27T01:33:10;2.80;;;1.92;;
22429;SDS011;11382;48.086;11.632;2024-01-27T01:35:38;7.15;;;2.50;;
22429;SDS011;11382;48.086;11.632;2024-01-27T01:38:06;4.43;;;1.63;;
22429;SDS011;11382;48.086;11.632;2024-01-27T01:40:34;4.38;;;1.98;;
22429;SDS011;11382;48.086;11.632;2024-01-27T01:43:02;7.00;;;2.25;;
22429;SDS011;11382;48.086;11.632;2024-01-27T01:45:32;6.97;;;2.20;;
22429;SDS011;11382;48.086;11.632;2024-01-27T01:48:00;4.03;;;2.30;;
22429;SDS011;11382;48.086;11.632;2024-01-27T01:50:29;5.43;;;2.13;;
22429;SDS011;11382;48.086;11.632;2024-01-27T01:52:57;6.28;;;2.65;;
22429;SDS011;11382;48.086;11.632;2024-01-27T01:55:25;5.57;;;2.20;;
22429;SDS011;11382;48.086;11.632;2024-01-27T01:57:54;4.32;;;2.13;;
22429;SDS011;11382;48.086;11.632;2024-01-27T02:00:22;7.22;;;1.95;;
22429;SDS011;11382;48.086;11.632;2024-01-27T02:02:51;6.35;;;1.90;;
22429;SDS011;11382;48.086;11.632;2024-01-27T02:05:19;3.28;;;1.80;;
22429;SDS011;11382;48.086;11.632;2024-01-27T02:07:47;4.90;;;1.88;;
22429;SDS011;11382;48.086;11.632;2024-01-27T02:10:16;5.13;;;1.98;;
22429;SDS011;11382;48.086;11.632;2024-01-27T02:12:45;4.22;;;2.22;;
22429;SDS011;11382;48.086;11.632;2024-01-27T02:15:13;7.25;;;2.42;;
22429;SDS011;11382;48.086;11.632;2024-01-27T02:17:41;5.35;;;1.90;;
22429;SDS011;11382;48.086;11.632;2024-01-27T02:20:11;3.42;;;1.90;;
22429;SDS011;11382;48.086;11.632;2024-01-27T02:22:39;4.28;;;1.80;;
22429;SDS011;11382;48.086;11.632;2024-01-27T02:25:09;6.15;;;1.90;;
22429;SDS011;11382;48.086;11.632;2024-01-27T02:27:37;3.03;;;2.10;;
22429;SDS011;11382;48.086;11.632;2024-01-27T02:30:05;6.15;;;2.13;;
22429;SDS011;11382;48.086;11.632;2024-01-27T02:32:34;5.95;;;1.95;;
22429;SDS011;11382;48.086;11.632;2024-01-27T02:35:02;5.70;;;1.88;;
22429;SDS011;11382;48.086;11.632;2024-01-27T02:37:31;6.25;;;1.98;;
22429;SDS011;11382;48.086;11.632;2024-01-27T02:39:59;5.45;;;2.22;;
22429;SDS011;11382;48.086;11.632;2024-01-27T02:42:28;5.82;;;2.00;;
22429;SDS011;11382;48.086;11.632;2024-01-27T02:44:56;4.47;;;2.13;;
22429;SDS011;11382;48.086;11.632;2024-01-27T02:47:24;5.93;;;2.35;;
22429;SDS011;11382;48.086;11.632;2024-01-27T02:49:52;4.90;;;2.33;;
22429;SDS011;11382;48.086;11.632;2024-01-27T02:52:20;6.93;;;2.15;;
22429;SDS011;11382;48.086;11.632;2024-01-27T02:54:49;7.93;;;2.17;;
22429;SDS011;11382;48.086;11.632;2024-01-27T02:57:18;6.35;;;2.53;;
22429;SDS011;11382;48.086;11.632;2024-01-27T02:59:47;5.65;;;1.98;;
22429;SDS011;11382;48.086;11.632;2024-01-27T03:02:16;5.93;;;2.42;;
22429;SDS011;11382;48.086;11.632;2024-01-27T03:04:44;4.32;;;2.10;;
22429;SDS011;11382;48.086;11.632;2024-01-27T03:07:12;6.35;;;2.08;;
22429;SDS011;11382;48.086;11.632;2024-01-27T03:09:40;5.45;;;2.10;;
22429;SDS011;11382;48.086;11.632;2024-01-27T03:12:08;8.20;;;2.22;;
22429;SDS011;11382;48.086;11.632;2024-01-27T03:14:36;2.63;;;1.90;;
22429;SDS011;11382;48.086;11.632;2024-01-27T03:17:05;5.05;;;2.20;;
22429;SDS011;11382;48.086;11.632;2024-01-27T03:19:34;5.90;;;1.67;;
22429;SDS011;11382;48.086;11.632;2024-01-27T03:22:04;4.70;;;1.98;;
22429;SDS011;11382;48.086;11.632;2024-01-27T03:24:32;5.07;;;2.25;;
22429;SDS011;11382;48.086;11.632;2024-01-27T03:27:00;3.38;;;1.85;;
22429;SDS011;11382;48.086;11.632;2024-01-27T03:29:28;4.07;;;2.05;;
22429;SDS011;11382;48.086;11.632;2024-01-27T03:31:56;4.63;;;2.00;;
22429;SDS011;11382;48.086;11.632;2024-01-27T03:34:26;4.22;;;2.00;;
22429;SDS011;11382;48.086;11.632;2024-01-27T03:36:55;6.25;;;2.08;;
22429;SDS011;11382;48.086;11.632;2024-01-27T03:39:23;3.58;;;1.83;;
22429;SDS011;11382;48.086;11.632;2024-01-27T03:41:51;3.53;;;2.08;;
22429;SDS011;11382;48.086;11.632;2024-01-27T03:44:19;6.97;;;2.55;;
22429;SDS011;11382;48.086;11.632;2024-01-27T03:46:47;3.05;;;2.00;;
22429;SDS011;11382;48.086;11.632;2024-01-27T03:49:17;8.18;;;2.03;;
22429;SDS011;11382;48.086;11.632;2024-01-27T03:51:47;6.78;;;2.10;;
22429;SDS011;11382;48.086;11.632;2024-01-27T03:54:15;6.45;;;2.13;;
22429;SDS011;11382;48.086;11.632;2024-01-27T03:56:43;4.63;;;1.77;;
22429;SDS011;11382;48.086;11.632;2024-01-27T03:59:11;3.75;;;1.65;;
22429;SDS011;11382;48.086;11.632;2024-01-27T04:01:39;6.10;;;2.20;;
22429;SDS011;11382;48.086;11.632;2024-01-27T04:04:07;4.00;;;1.77;;
22429;SDS011;11382;48.086;11.632;2024-01-27T04:06:36;7.18;;;2.13;;
22429;SDS011;11382;48.086;11.632;2024-01-27T04:09:06;5.97;;;1.70;;
22429;SDS011;11382;48.086;11.632;2024-01-27T04:11:35;3.28;;;1.92;;
22429;SDS011;11382;48.086;11.632;2024-01-27T04:14:04;9.27;;;2.10;;
22429;SDS011;11382;48.086;11.632;2024-01-27T04:16:32;4.40;;;2.00;;
22429;SDS011;11382;48.086;11.632;2024-01-27T04:19:00;5.47;;;1.73;;
22429;SDS011;11382;48.086;11.632;2024-01-27T04:21:28;5.15;;;2.10;;
22429;SDS011;11382;48.086;11.632;2024-01-27T04:23:57;4.47;;;2.00;;
22429;SDS011;11382;48.086;11.632;2024-01-27T04:26:26;5.45;;;1.83;;
22429;SDS011;11382;48.086;11.632;2024-01-27T04:28:54;5.00;;;1.80;;
22429;SDS011;11382;48.086;11.632;2024-01-27T04:31:22;6.30;;;1.90;;
22429;SDS011;11382;48.086;11.632;2024-01-27T04:33:50;6.43;;;2.05;;
22429;SDS011;11382;48.086;11.632;2024-01-27T04:36:24;4.50;;;1.90;;
22429;SDS011;11382;48.086;11.632;2024-01-27T04:38:54;3.38;;;1.80;;
22429;SDS011;11382;48.086;11.632;2024-01-27T04:41:22;5.57;;;2.17;;
22429;SDS011;11382;48.086;11.632;2024-01-27T04:43:51;5.25;;;1.88;;
22429;SDS011;11382;48.086;11.632;2024-01-27T04:46:21;5.93;;;1.95;;
22429;SDS011;11382;48.086;11.632;2024-01-27T04:48:49;6.88;;;2.08;;
22429;SDS011;11382;48.086;11.632;2024-01-27T04:51:20;3.08;;;1.70;;
22429;SDS011;11382;48.086;11.632;2024-01-27T04:53:50;8.30;;;2.20;;
22429;SDS011;11382;48.086;11.632;2024-01-27T04:56:18;3.80;;;2.38;;
22429;SDS011;11382;48.086;11.632;2024-01-27T04:58:46;8.45;;;2.35;;
22429;SDS011;11382;48.086;11.632;2024-01-27T05:01:15;5.45;;;2.17;;
22429;SDS011;11382;48.086;11.632;2024-01-27T05:03:43;6.47;;;2.17;;
22429;SDS011;11382;48.086;11.632;2024-01-27T05:06:12;4.10;;;1.83;;
22429;SDS011;11382;48.086;11.632;2024-01-27T05:08:40;4.65;;;1.95;;
22429;SDS011;11382;48.086;11.632;2024-01-27T05:11:09;2.45;;;1.80;;
22429;SDS011;11382;48.086;11.632;2024-01-27T05:13:37;4.53;;;2.00;;
22429;SDS011;11382;48.086;11.632;2024-01-27T05:16:07;7.38;;;1.98;;
22429;SDS011;11382;48.086;11.632;2024-01-27T05:18:37;5.70;;;2.05;;
22429;SDS011;11382;48.086;11.632;2024-01-27T05:21:05;9.25;;;2.28;;
22429;SDS011;11382;48.086;11.632;2024-01-27T05:23:33;7.70;;;1.98;;
22429;SDS011;11382;48.086;11.632;2024-01-27T05:26:01;6.03;;;2.00;;
22429;SDS011;11382;48.086;11.632;2024-01-27T05:28:29;7.43;;;2.10;;
22429;SDS011;11382;48.086;11.632;2024-01-27T05:30:58;6.20;;;2.00;;
22429;SDS011;11382;48.086;11.632;2024-01-27T05:33:26;6.45;;;2.60;;
22429;SDS011;11382;48.086;11.632;2024-01-27T05:35:56;6.90;;;2.38;;
22429;SDS011;11382;48.086;11.632;2024-01-27T05:38:24;4.70;;;1.92;;
22429;SDS011;11382;48.086;11.632;2024-01-27T05:40:54;5.50;;;2.20;;
22429;SDS011;11382;48.086;11.632;2024-01-27T05:43:23;6.15;;;2.58;;
22429;SDS011;11382;48.086;11.632;2024-01-27T05:45:51;3.47;;;2.17;;
22429;SDS011;11382;48.086;11.632;2024-01-27T05:48:20;4.43;;;2.00;;
22429;SDS011;11382;48.086;11.632;2024-01-27T05:50:55;6.35;;;2.35;;
22429;SDS011;11382;48.086;11.632;2024-01-27T05:53:24;5.82;;;1.90;;
22429;SDS011;11382;48.086;11.632;2024-01-27T05:55:53;7.05;;;2.50;;
22429;SDS011;11382;48.086;11.632;2024-01-27T05:58:21;5.65;;;2.38;;
22429;SDS011;11382;48.086;11.632;2024-01-27T06:00:49;5.18;;;2.50;;
22429;SDS011;11382;48.086;11.632;2024-01-27T06:03:17;6.32;;;2.67;;
22429;SDS011;11382;48.086;11.632;2024-01-27T06:05:45;6.65;;;2.28;;
22429;SDS011;11382;48.086;11.632;2024-01-27T06:08:15;4.57;;;2.40;;
22429;SDS011;11382;48.086;11.632;2024-01-27T06:10:44;3.75;;;2.28;;
22429;SDS011;11382;48.086;11.632;2024-01-27T06:13:12;8.27;;;2.70;;
22429;SDS011;11382;48.086;11.632;2024-01-27T06:15:40;5.00;;;2.80;;
22429;SDS011;11382;48.086;11.632;2024-01-27T06:18:46;7.40;;;3.05;;
22429;SDS011;11382;48.086;11.632;2024-01-27T06:21:20;4.15;;;2.55;;
22429;SDS011;11382;48.086;11.632;2024-01-27T06:23:49;4.10;;;2.42;;
22429;SDS011;11382;48.086;11.632;2024-01-27T06:26:18;6.80;;;2.70;;
22429;SDS011;11382;48.086;11.632;2024-01-27T06:28:47;7.07;;;2.47;;
22429;SDS011;11382;48.086;11.632;2024-01-27T06:31:15;6.25;;;2.78;;
22429;SDS011;11382;48.086;11.632;2024-01-27T06:33:44;4.90;;;2.78;;
22429;SDS011;11382;48.086;11.632;2024-01-27T06:36:12;6.53;;;2.67;;
22429;SDS011;11382;48.086;11.632;2024-01-27T06:38:40;10.55;;;3.15;;
22429;SDS011;11382;48.086;11.632;2024-01-27T06:41:10;4.88;;;2.35;;
22429;SDS011;11382;48.086;11.632;2024-01-27T06:43:38;4.25;;;2.42;;
22429;SDS011;11382;48.086;11.632;2024-01-27T06:46:06;4.75;;;2.25;;
22429;SDS011;11382;48.086;11.632;2024-01-27T06:48:34;7.00;;;2.45;;
22429;SDS011;11382;48.086;11.632;2024-01-27T06:51:03;6.78;;;2.55;;
22429;SDS011;11382;48.086;11.632;2024-01-27T06:53:32;5.00;;;2.50;;
22429;SDS011;11382;48.086;11.632;2024-01-27T06:56:00;4.47;;;2.13;;
22429;SDS011;11382;48.086;11.632;2024-01-27T06:58:29;4.93;;;2.53;;
22429;SDS011;11382;48.086;11.632;2024-01-27T07:00:57;3.72;;;2.30;;
22429;SDS011;11382;48.086;11.632;2024-01-27T07:03:25;6.97;;;2.70;;
22429;SDS011;11382;48.086;11.632;2024-01-27T07:05:54;4.38;;;2.58;;
22429;SDS011;11382;48.086;11.632;2024-01-27T07:08:22;8.93;;;2.67;;
22429;SDS011;11382;48.086;11.632;2024-01-27T07:10:50;6.95;;;2.97;;
22429;SDS011;11382;48.086;11.632;2024-01-27T07:13:18;4.45;;;2.20;;
22429;SDS011;11382;48.086;11.632;2024-01-27T07:15:47;6.07;;;3.25;;
22429;SDS011;11382;48.086;11.632;2024-01-27T07:18:15;8.98;;;3.53;;
22429;SDS011;11382;48.086;11.632;2024-01-27T07:20:46;5.25;;;2.75;;
22429;SDS011;11382;48.086;11.632;2024-01-27T07:23:14;7.15;;;3.28;;
22429;SDS011;11382;48.086;11.632;2024-01-27T07:25:42;6.50;;;3.45;;
22429;SDS011;11382;48.086;11.632;2024-01-27T07:28:10;8.52;;;2.80;;
22429;SDS011;11382;48.086;11.632;2024-01-27T07:30:38;5.50;;;2.80;;
22429;SDS011;11382;48.086;11.632;2024-01-27T07:33:08;7.03;;;3.08;;
22429;SDS011;11382;48.086;11.632;2024-01-27T07:35:36;5.57;;;2.47;;
22429;SDS011;11382;48.086;11.632;2024-01-27T07:38:04;7.07;;;3.20;;
22429;SDS011;11382;48.086;11.632;2024-01-27T07:40:32;8.60;;;3.63;;
22429;SDS011;11382;48.086;11.632;2024-01-27T07:43:00;8.07;;;3.40;;
22429;SDS011;11382;48.086;11.632;2024-01-27T07:45:29;10.30;;;3.28;;
22429;SDS011;11382;48.086;11.632;2024-01-27T07:47:57;6.97;;;3.35;;
22429;SDS011;11382;48.086;11.632;2024-01-27T07:50:29;10.45;;;3.97;;
22429;SDS011;11382;48.086;11.632;2024-01-27T07:52:57;8.02;;;3.60;;
22429;SDS011;11382;48.086;11.632;2024-01-27T07:55:25;7.47;;;3.47;;
22429;SDS011;11382;48.086;11.632;2024-01-27T07:57:53;8.27;;;3.92;;
22429;SDS011;11382;48.086;11.632;2024-01-27T08:00:21;6.15;;;3.28;;
22429;SDS011;11382;48.086;11.632;2024-01-27T08:02:49;6.47;;;3.20;;
22429;SDS011;11382;48.086;11.632;2024-01-27T08:05:17;7.68;;;3.08;;
22429;SDS011;11382;48.086;11.632;2024-01-27T08:07:49;9.73;;;3.70;;
22429;SDS011;11382;48.086;11.632;2024-01-27T08:10:17;7.28;;;3.00;;
22429;SDS011;11382;48.086;11.632;2024-01-27T08:12:45;5.60;;;2.95;;
22429;SDS011;11382;48.086;11.632;2024-01-27T08:15:13;11.20;;;3.15;;
22429;SDS011;11382;48.086;11.632;2024-01-27T08:17:43;9.88;;;3.40;;
22429;SDS011;11382;48.086;11.632;2024-01-27T08:20:11;6.80;;;2.88;;
22429;SDS011;11382;48.086;11.632;2024-01-27T08:22:39;5.28;;;2.63;;
22429;SDS011;11382;48.086;11.632;2024-01-27T08:25:09;9.20;;;3.70;;
22429;SDS011;11382;48.086;11.632;2024-01-27T08:27:37;6.10;;;2.85;;
22429;SDS011;11382;48.086;11.632;2024-01-27T08:30:06;4.85;;;2.85;;
22429;SDS011;11382;48.086;11.632;2024-01-27T08:32:35;6.47;;;3.25;;
22429;SDS011;11382;48.086;11.632;2024-01-27T08:35:03;7.55;;;2.85;;
22429;SDS011;11382;48.086;11.632;2024-01-27T08:37:35;7.55;;;2.70;;
22429;SDS011;11382;48.086;11.632;2024-01-27T08:40:06;9.73;;;3.63;;
22429;SDS011;11382;48.086;11.632;2024-01-27T08:42:36;6.32;;;3.70;;
22429;SDS011;11382;48.086;11.632;2024-01-27T08:45:04;7.57;;;3.03;;
22429;SDS011;11382;48.086;11.632;2024-01-27T08:47:33;6.95;;;3.00;;
22429;SDS011;11382;48.086;11.632;2024-01-27T08:50:01;8.82;;;3.38;;
22429;SDS011;11382;48.086;11.632;2024-01-27T08:52:29;7.05;;;3.08;;
22429;SDS011;11382;48.086;11.632;2024-01-27T08:54:59;4.18;;;2.42;;
22429;SDS011;11382;48.086;11.632;2024-01-27T08:57:27;6.93;;;2.97;;
22429;SDS011;11382;48.086;11.632;2024-01-27T08:59:56;8.85;;;3.05;;
22429;SDS011;11382;48.086;11.632;2024-01-27T09:02:26;7.93;;;3.10;;
22429;SDS011;11382;48.086;11.632;2024-01-27T09:04:54;7.80;;;3.00;;
22429;SDS011;11382;48.086;11.632;2024-01-27T09:07:23;6.50;;;3.05;;
22429;SDS011;11382;48.086;11.632;2024-01-27T09:09:51;7.50;;;2.78;;
22429;SDS011;11382;48.086;11.632;2024-01-27T09:12:19;7.53;;;2.20;;
22429;SDS011;11382;48.086;11.632;2024-01-27T09:14:48;6.88;;;2.65;;
22429;SDS011;11382;48.086;11.632;2024-01-27T09:17:18;6.97;;;2.45;;
22429;SDS011;11382;48.086;11.632;2024-01-27T09:19:46;7.07;;;2.45;;
22429;SDS011;11382;48.086;11.632;2024-01-27T09:22:14;8.48;;;2.85;;
22429;SDS011;11382;48.086;11.632;2024-01-27T09:24:42;6.57;;;2.53;;
22429;SDS011;11382;48.086;11.632;2024-01-27T09:27:10;5.68;;;2.60;;
22429;SDS011;11382;48.086;11.632;2024-01-27T09:29:38;7.28;;;2.42;;
22429;SDS011;11382;48.086;11.632;2024-01-27T09:32:06;5.93;;;2.70;;
22429;SDS011;11382;48.086;11.632;2024-01-27T09:34:36;5.78;;;3.10;;
22429;SDS011;11382;48.086;11.632;2024-01-27T09:37:04;8.57;;;3.00;;
22429;SDS011;11382;48.086;11.632;2024-01-27T09:39:32;7.32;;;2.97;;
22429;SDS011;11382;48.086;11.632;2024-01-27T09:42:01;5.68;;;3.00;;
22429;SDS011;11382;48.086;11.632;2024-01-27T09:44:34;6.85;;;2.95;;
22429;SDS011;11382;48.086;11.632;2024-01-27T09:47:03;6.18;;;2.97;;
22429;SDS011;11382;48.086;11.632;2024-01-27T09:49:31;9.38;;;3.05;;
22429;SDS011;11382;48.086;11.632;2024-01-27T09:52:02;7.07;;;2.83;;
22429;SDS011;11382;48.086;11.632;2024-01-27T09:54:30;6.88;;;2.55;;
22429;SDS011;11382;48.086;11.632;2024-01-27T09:56:59;5.65;;;2.75;;
22429;SDS011;11382;48.086;11.632;2024-01-27T09:59:29;7.22;;;2.85;;
22429;SDS011;11382;48.086;11.632;2024-01-27T10:01:59;9.45;;;3.47;;
22429;SDS011;11382;48.086;11.632;2024-01-27T10:04:27;7.20;;;3.13;;
22429;SDS011;11382;48.086;11.632;2024-01-27T10:06:57;6.60;;;2.90;;
22429;SDS011;11382;48.086;11.632;2024-01-27T10:09:27;9.68;;;3.08;;
22429;SDS011;11382;48.086;11.632;2024-01-27T10:11:55;7.45;;;3.33;;
22429;SDS011;11382;48.086;11.632;2024-01-27T10:14:24;7.00;;;3.05;;
22429;SDS011;11382;48.086;11.632;2024-01-27T10:16:52;9.32;;;3.28;;
22429;SDS011;11382;48.086;11.632;2024-01-27T10:19:21;8.57;;;3.08;;
22429;SDS011;11382;48.086;11.632;2024-01-27T10:21:59;8.10;;;3.13;;
22429;SDS011;11382;48.086;11.632;2024-01-27T10:24:29;9.98;;;3.22;;
22429;SDS011;11382;48.086;11.632;2024-01-27T10:27:00;6.82;;;2.45;;
22429;SDS011;11382;48.086;11.632;2024-01-27T10:29:29;7.22;;;2.85;;
22429;SDS011;11382;48.086;11.632;2024-01-27T10:32:06;9.32;;;2.80;;
22429;SDS011;11382;48.086;11.632;2024-01-27T10:34:36;6.00;;;2.95;;
22429;SDS011;11382;48.086;11.632;2024-01-27T10:37:04;7.68;;;2.67;;
22429;SDS011;11382;48.086;11.632;2024-01-27T10:39:34;6.85;;;3.15;;
22429;SDS011;11382;48.086;11.632;2024-01-27T10:42:02;11.02;;;3.00;;
22429;SDS011;11382;48.086;11.632;2024-01-27T10:44:30;6.82;;;2.80;;
22429;SDS011;11382;48.086;11.632;2024-01-27T10:47:01;8.20;;;3.03;;
22429;SDS011;11382;48.086;11.632;2024-01-27T10:49:31;6.85;;;2.80;;
22429;SDS011;11382;48.086;11.632;2024-01-27T10:52:05;8.73;;;3.55;;
22429;SDS011;11382;48.086;11.632;2024-01-27T10:54:41;8.38;;;3.05;;
22429;SDS011;11382;48.086;11.632;2024-01-27T10:57:09;8.57;;;3.08;;
22429;SDS011;11382;48.086;11.632;2024-01-27T10:59:39;9.02;;;2.95;;
22429;SDS011;11382;48.086;11.632;2024-01-27T11:02:11;9.75;;;3.45;;
22429;SDS011;11382;48.086;11.632;2024-01-27T11:04:41;7.82;;;3.17;;
22429;SDS011;11382;48.086;11.632;2024-01-27T11:07:10;8.68;;;3.47;;
22429;SDS011;11382;48.086;11.632;2024-01-27T11:09:41;8.18;;;3.22;;
22429;SDS011;11382;48.086;11.632;2024-01-27T11:12:10;6.13;;;2.70;;
22429;SDS011;11382;48.086;11.632;2024-01-27T11:14:39;7.10;;;3.00;;
22429;SDS011;11382;48.086;11.632;2024-01-27T11:17:08;8.73;;;3.17;;
22429;SDS011;11382;48.086;11.632;2024-01-27T11:19:37;9.65;;;3.03;;
22429;SDS011;11382;48.086;11.632;2024-01-27T11:22:07;6.82;;;2.80;;
22429;SDS011;11382;48.086;11.632;2024-01-27T11:24:51;6.95;;;2.95;;
22429;SDS011;11382;48.086;11.632;2024-01-27T11:27:26;4.72;;;2.50;;
22429;SDS011;11382;48.086;11.632;2024-01-27T11:29:56;7.20;;;3.20;;
22429;SDS011;11382;48.086;11.632;2024-01-27T11:32:25;8.27;;;2.95;;
22429;SDS011;11382;48.086;11.632;2024-01-27T11:34:53;7.15;;;2.28;;
22429;SDS011;11382;48.086;11.632;2024-01-27T11:37:22;7.20;;;2.38;;
22429;SDS011;11382;48.086;11.632;2024-01-27T11:39:52;8.15;;;2.50;;
22429;SDS011;11382;48.086;11.632;2024-01-27T11:42:31;6.25;;;2.35;;
22429;SDS011;11382;48.086;11.632;2024-01-27T11:44:59;4.07;;;2.92;;
22429;SDS011;11382;48.086;11.632;2024-01-27T11:47:28;5.57;;;2.20;;
22429;SDS011;11382;48.086;11.632;2024-01-27T11:49:57;5.30;;;2.45;;
22429;SDS011;11382;48.086;11.632;2024-01-27T11:52:25;4.88;;;2.80;;
22429;SDS011;11382;48.086;11.632;2024-01-27T11:54:56;5.68;;;2.30;;
22429;SDS011;11382;48.086;11.632;2024-01-27T11:57:25;6.60;;;2.40;;
22429;SDS011;11382;48.086;11.632;2024-01-27T11:59:54;3.42;;;2.17;;
22429;SDS011;11382;48.086;11.632;2024-01-27T12:02:23;7.38;;;2.67;;
22429;SDS011;11382;48.086;11.632;2024-01-27T12:04:51;4.50;;;2.13;;
22429;SDS011;11382;48.086;11.632;2024-01-27T12:07:20;6.20;;;2.40;;
22429;SDS011;11382;48.086;11.632;2024-01-27T12:09:49;6.47;;;2.22;;
22429;SDS011;11382;48.086;11.632;2024-01-27T12:12:19;8.90;;;3.15;;
22429;SDS011;11382;48.086;11.632;2024-01-27T12:14:47;5.07;;;2.13;;
22429;SDS011;11382;48.086;11.632;2024-01-27T12:17:17;6.43;;;2.58;;
22429;SDS011;11382;48.086;11.632;2024-01-27T12:19:45;7.40;;;2.08;;
22429;SDS011;11382;48.086;11.632;2024-01-27T12:22:20;5.38;;;2.00;;
22429;SDS011;11382;48.086;11.632;2024-01-27T12:24:49;7.10;;;2.10;;
22429;SDS011;11382;48.086;11.632;2024-01-27T12:27:19;4.07;;;1.83;;
22429;SDS011;11382;48.086;11.632;2024-01-27T12:29:47;6.63;;;1.95;;
22429;SDS011;11382;48.086;11.632;2024-01-27T12:32:16;3.47;;;1.60;;
22429;SDS011;11382;48.086;11.632;2024-01-27T12:34:45;7.10;;;1.73;;
22429;SDS011;11382;48.086;11.632;2024-01-27T12:37:14;7.22;;;1.83;;
22429;SDS011;11382;48.086;11.632;2024-01-27T12:39:43;7.20;;;1.98;;
22429;SDS011;11382;48.086;11.632;2024-01-27T12:42:11;4.47;;;1.80;;
22429;SDS011;11382;48.086;11.632;2024-01-27T12:44:43;5.43;;;1.95;;
22429;SDS011;11382;48.086;11.632;2024-01-27T12:47:11;7.32;;;1.60;;
22429;SDS011;11382;48.086;11.632;2024-01-27T12:49:40;3.67;;;1.83;;
22429;SDS011;11382;48.086;11.632;2024-01-27T12:52:08;2.67;;;1.48;;
22429;SDS011;11382;48.086;11.632;2024-01-27T12:54:36;3.83;;;1.73;;
22429;SDS011;11382;48.086;11.632;2024-01-27T12:57:04;7.30;;;1.90;;
22429;SDS011;11382;48.086;11.632;2024-01-27T12:59:34;5.30;;;1.65;;
22429;SDS011;11382;48.086;11.632;2024-01-27T13:02:03;6.28;;;1.88;;
22429;SDS011;11382;48.086;11.632;2024-01-27T13:04:31;4.50;;;1.55;;
22429;SDS011;11382;48.086;11.632;2024-01-27T13:06:59;4.47;;;2.30;;
22429;SDS011;11382;48.086;11.632;2024-01-27T13:09:29;3.63;;;1.85;;
22429;SDS011;11382;48.086;11.632;2024-01-27T13:11:57;8.00;;;2.33;;
22429;SDS011;11382;48.086;11.632;2024-01-27T13:14:25;3.60;;;1.63;;
22429;SDS011;11382;48.086;11.632;2024-01-27T13:16:53;3.65;;;1.60;;
22429;SDS011;11382;48.086;11.632;2024-01-27T13:19:22;3.60;;;1.77;;
22429;SDS011;11382;48.086;11.632;2024-01-27T13:21:51;2.90;;;1.77;;
22429;SDS011;11382;48.086;11.632;2024-01-27T13:24:19;6.72;;;1.95;;
22429;SDS011;11382;48.086;11.632;2024-01-27T13:26:47;4.88;;;2.00;;
22429;SDS011;11382;48.086;11.632;2024-01-27T13:29:14;4.28;;;2.00;;
22429;SDS011;11382;48.086;11.632;2024-01-27T13:31:42;5.32;;;1.92;;
22429;SDS011;11382;48.086;11.632;2024-01-27T13:34:10;7.07;;;2.25;;
22429;SDS011;11382;48.086;11.632;2024-01-27T13:36:41;9.60;;;1.90;;
22429;SDS011;11382;48.086;11.632;2024-01-27T13:39:09;6.20;;;1.70;;
22429;SDS011;11382;48.086;11.632;2024-01-27T13:41:38;5.55;;;1.92;;
22429;SDS011;11382;48.086;11.632;2024-01-27T13:44:06;3.33;;;1.60;;
22429;SDS011;11382;48.086;11.632;2024-01-27T13:46:34;6.47;;;2.35;;
22429;SDS011;11382;48.086;11.632;2024-01-27T13:49:02;3.90;;;1.60;;
22429;SDS011;11382;48.086;11.632;2024-01-27T13:51:31;3.03;;;1.33;;
22429;SDS011;11382;48.086;11.632;2024-01-27T13:54:00;3.85;;;2.00;;
22429;SDS011;11382;48.086;11.632;2024-01-27T13:56:29;7.30;;;2.03;;
22429;SDS011;11382;48.086;11.632;2024-01-27T13:58:59;4.10;;;2.05;;
22429;SDS011;11382;48.086;11.632;2024-01-27T14:01:27;2.95;;;1.77;;
22429;SDS011;11382;48.086;11.632;2024-01-27T14:03:55;6.38;;;2.15;;
22429;SDS011;11382;48.086;11.632;2024-01-27T14:06:24;4.93;;;2.30;;
22429;SDS011;11382;48.086;11.632;2024-01-27T14:08:52;4.72;;;1.98;;
22429;SDS011;11382;48.086;11.632;2024-01-27T14:11:22;4.35;;;2.03;;
22429;SDS011;11382;48.086;11.632;2024-01-27T14:13:50;4.47;;;1.67;;
22429;SDS011;11382;48.086;11.632;2024-01-27T14:16:18;3.97;;;2.00;;
22429;SDS011;11382;48.086;11.632;2024-01-27T14:18:47;5.53;;;1.88;;
22429;SDS011;11382;48.086;11.632;2024-01-27T14:21:15;6.95;;;1.77;;
22429;SDS011;11382;48.086;11.632;2024-01-27T14:23:44;5.45;;;2.03;;
22429;SDS011;11382;48.086;11.632;2024-01-27T14:26:11;4.88;;;2.17;;
22429;SDS011;11382;48.086;11.632;2024-01-27T14:28:43;6.70;;;2.25;;
22429;SDS011;11382;48.086;11.632;2024-01-27T14:31:11;5.65;;;2.50;;
22429;SDS011;11382;48.086;11.632;2024-01-27T14:33:41;7.75;;;2.20;;
22429;SDS011;11382;48.086;11.632;2024-01-27T14:36:10;5.18;;;2.13;;
22429;SDS011;11382;48.086;11.632;2024-01-27T14:38:38;4.93;;;1.65;;
22429;SDS011;11382;48.086;11.632;2024-01-27T14:41:08;9.10;;;1.80;;
22429;SDS011;11382;48.086;11.632;2024-01-27T14:43:37;3.85;;;2.00;;